createdAt,value
2019-02-19T00:00:13.516Z,11.59
2019-02-19T00:00:39.623Z,11.62
2019-02-19T00:01:05.762Z,11.63
2019-02-19T00:01:31.896Z,11.63
2019-02-19T00:01:58.007Z,11.65
2019-02-19T00:02:24.145Z,11.63
2019-02-19T00:02:50.257Z,11.65
2019-02-19T00:03:16.441Z,11.63
2019-02-19T00:03:42.552Z,11.6
2019-02-19T00:04:08.680Z,11.59
2019-02-19T00:04:34.787Z,11.6
2019-02-19T00:05:00.926Z,11.65
2019-02-19T00:05:27.064Z,11.55
2019-02-19T00:05:53.168Z,11.6
2019-02-19T00:06:19.272Z,11.57
2019-02-19T00:06:45.375Z,11.6
2019-02-19T00:07:11.506Z,11.51
2019-02-19T00:07:37.614Z,11.62
2019-02-19T00:08:03.719Z,11.52
2019-02-19T00:08:29.853Z,11.5
2019-02-19T00:08:55.990Z,11.55
2019-02-19T00:09:22.124Z,11.6
2019-02-19T00:09:48.235Z,11.57
2019-02-19T00:10:14.339Z,11.52
2019-02-19T00:10:40.471Z,11.5
2019-02-19T00:11:06.579Z,11.51
2019-02-19T00:11:32.687Z,11.52
2019-02-19T00:11:58.803Z,11.54
2019-02-19T00:12:24.912Z,11.54
2019-02-19T00:12:51.044Z,11.48
2019-02-19T00:13:17.156Z,11.48
2019-02-19T00:13:43.280Z,11.51
2019-02-19T00:14:09.389Z,11.55
2019-02-19T00:14:35.518Z,11.54
2019-02-19T00:15:07.828Z,11.57
2019-02-19T00:15:28.781Z,11.55
2019-02-19T00:15:54.897Z,11.54
2019-02-19T00:16:21.028Z,11.51
2019-02-19T00:16:47.130Z,11.52
2019-02-19T00:17:13.240Z,11.51
2019-02-19T00:17:39.346Z,11.5
2019-02-19T00:18:05.451Z,11.45
2019-02-19T00:18:31.562Z,11.41
2019-02-19T00:18:57.666Z,11.44
2019-02-19T00:19:23.810Z,11.43
2019-02-19T00:19:49.916Z,11.41
2019-02-19T00:20:16.018Z,11.37
2019-02-19T00:20:42.130Z,11.45
2019-02-19T00:21:08.241Z,11.37
2019-02-19T00:21:34.344Z,11.44
2019-02-19T00:22:00.451Z,11.48
2019-02-19T00:22:26.559Z,11.45
2019-02-19T00:22:52.659Z,11.47
2019-02-19T00:23:18.766Z,11.44
2019-02-19T00:23:44.876Z,11.47
2019-02-19T00:24:11.015Z,11.37
2019-02-19T00:24:37.129Z,11.4
2019-02-19T00:25:03.284Z,11.41
2019-02-19T00:25:29.393Z,11.37
2019-02-19T00:25:55.500Z,11.43
2019-02-19T00:26:21.640Z,11.45
2019-02-19T00:26:47.788Z,11.45
2019-02-19T00:27:13.934Z,11.41
2019-02-19T00:27:40.041Z,11.41
2019-02-19T00:28:06.148Z,11.43
2019-02-19T00:28:32.253Z,11.41
2019-02-19T00:28:58.357Z,11.43
2019-02-19T00:29:24.461Z,11.4
2019-02-19T00:29:50.574Z,11.43
2019-02-19T00:30:16.679Z,11.4
2019-02-19T00:30:42.784Z,11.4
2019-02-19T00:31:08.895Z,11.41
2019-02-19T00:31:35.004Z,11.41
2019-02-19T00:32:01.112Z,11.43
2019-02-19T00:32:27.246Z,11.43
2019-02-19T00:32:53.365Z,11.4
2019-02-19T00:33:19.463Z,11.44
2019-02-19T00:33:45.570Z,11.37
2019-02-19T00:34:11.675Z,11.4
2019-02-19T00:34:37.779Z,11.36
2019-02-19T00:35:03.887Z,11.43
2019-02-19T00:35:30.008Z,11.41
2019-02-19T00:35:56.136Z,11.37
2019-02-19T00:36:22.243Z,11.33
2019-02-19T00:36:48.365Z,11.4
2019-02-19T00:37:14.510Z,11.4
2019-02-19T00:37:40.611Z,11.37
2019-02-19T00:38:06.723Z,11.3
2019-02-19T00:38:32.835Z,11.26
2019-02-19T00:38:58.938Z,11.35
2019-02-19T00:39:25.051Z,11.3
2019-02-19T00:39:51.155Z,11.32
2019-02-19T00:40:17.265Z,11.3
2019-02-19T00:40:43.367Z,11.32
2019-02-19T00:41:09.470Z,11.3
2019-02-19T00:41:35.578Z,11.32
2019-02-19T00:42:01.687Z,11.33
2019-02-19T00:42:27.797Z,11.37
2019-02-19T00:42:53.898Z,11.33
2019-02-19T00:43:19.999Z,11.32
2019-02-19T00:43:46.108Z,11.36
2019-02-19T00:44:12.216Z,11.4
2019-02-19T00:44:38.319Z,11.37
2019-02-19T00:45:05.147Z,11.37
2019-02-19T00:45:32.797Z,11.41
2019-02-19T00:45:58.894Z,11.33
2019-02-19T00:46:25.026Z,11.33
2019-02-19T00:46:51.134Z,11.36
2019-02-19T00:47:17.244Z,11.37
2019-02-19T00:47:43.393Z,11.32
2019-02-19T00:48:09.505Z,11.36
2019-02-19T00:48:35.605Z,11.3
2019-02-19T00:49:01.714Z,11.29
2019-02-19T00:49:27.819Z,11.29
2019-02-19T00:49:53.926Z,11.29
2019-02-19T00:50:20.059Z,11.32
2019-02-19T00:50:46.170Z,11.32
2019-02-19T00:51:12.279Z,11.27
2019-02-19T00:51:38.385Z,11.33
2019-02-19T00:52:04.486Z,11.22
2019-02-19T00:52:30.615Z,11.29
2019-02-19T00:52:56.723Z,11.32
2019-02-19T00:53:22.824Z,11.29
2019-02-19T00:53:48.933Z,11.29
2019-02-19T00:54:15.038Z,11.23
2019-02-19T00:54:41.165Z,11.26
2019-02-19T00:55:07.295Z,11.3
2019-02-19T00:55:33.424Z,11.3
2019-02-19T00:55:59.527Z,11.37
2019-02-19T00:56:25.639Z,11.32
2019-02-19T00:56:51.745Z,11.32
2019-02-19T00:57:17.855Z,11.4
2019-02-19T00:57:43.967Z,11.29
2019-02-19T00:58:11.060Z,11.27
2019-02-19T00:58:37.160Z,11.26
2019-02-19T00:59:03.270Z,11.29
2019-02-19T00:59:29.406Z,11.3
2019-02-19T00:59:55.538Z,11.3
2019-02-19T01:00:21.651Z,11.32
2019-02-19T01:00:47.784Z,11.37
2019-02-19T01:01:13.932Z,11.3
2019-02-19T01:01:39.989Z,11.27
2019-02-19T01:02:06.128Z,11.29
2019-02-19T01:02:32.231Z,11.26
2019-02-19T01:02:58.345Z,11.33
2019-02-19T01:03:24.450Z,11.29
2019-02-19T01:03:50.590Z,11.36
2019-02-19T01:04:16.693Z,11.32
2019-02-19T01:04:42.799Z,11.3
2019-02-19T01:05:08.907Z,11.35
2019-02-19T01:05:35.040Z,11.25
2019-02-19T01:06:01.158Z,11.3
2019-02-19T01:06:27.285Z,11.25
2019-02-19T01:06:53.408Z,11.25
2019-02-19T01:07:19.547Z,11.23
2019-02-19T01:07:45.649Z,11.29
2019-02-19T01:08:11.762Z,11.25
2019-02-19T01:08:37.862Z,11.26
2019-02-19T01:09:03.968Z,11.25
2019-02-19T01:09:30.105Z,11.26
2019-02-19T01:09:56.211Z,11.25
2019-02-19T01:10:22.315Z,11.26
2019-02-19T01:10:48.421Z,11.27
2019-02-19T01:11:14.527Z,11.29
2019-02-19T01:11:40.630Z,11.32
2019-02-19T01:12:06.738Z,11.33
2019-02-19T01:12:32.846Z,11.3
2019-02-19T01:12:58.961Z,11.29
2019-02-19T01:13:25.125Z,11.29
2019-02-19T01:13:51.233Z,11.26
2019-02-19T01:14:17.351Z,11.37
2019-02-19T01:14:43.473Z,11.3
2019-02-19T01:15:09.580Z,11.3
2019-02-19T01:15:36.682Z,11.35
2019-02-19T01:16:02.792Z,11.41
2019-02-19T01:16:28.895Z,11.3
2019-02-19T01:16:55.001Z,11.35
2019-02-19T01:17:21.112Z,11.32
2019-02-19T01:17:47.212Z,11.3
2019-02-19T01:18:13.329Z,11.3
2019-02-19T01:18:39.437Z,11.27
2019-02-19T01:19:05.540Z,11.29
2019-02-19T01:19:31.645Z,11.29
2019-02-19T01:19:57.749Z,11.27
2019-02-19T01:20:23.865Z,11.22
2019-02-19T01:20:49.991Z,11.18
2019-02-19T01:21:16.132Z,11.18
2019-02-19T01:21:42.235Z,11.19
2019-02-19T01:22:08.345Z,11.29
2019-02-19T01:22:34.445Z,11.27
2019-02-19T01:23:00.586Z,11.27
2019-02-19T01:23:26.685Z,11.26
2019-02-19T01:23:52.790Z,11.22
2019-02-19T01:24:18.897Z,11.25
2019-02-19T01:24:45.029Z,11.25
2019-02-19T01:25:11.143Z,11.22
2019-02-19T01:25:37.246Z,11.25
2019-02-19T01:26:03.353Z,11.22
2019-02-19T01:26:29.456Z,11.29
2019-02-19T01:26:55.567Z,11.25
2019-02-19T01:27:21.674Z,11.25
2019-02-19T01:27:47.805Z,11.15
2019-02-19T01:28:13.916Z,11.14
2019-02-19T01:28:40.021Z,11.25
2019-02-19T01:29:06.132Z,11.19
2019-02-19T01:29:32.252Z,11.18
2019-02-19T01:29:58.364Z,11.26
2019-02-19T01:30:24.462Z,11.19
2019-02-19T01:30:50.576Z,11.26
2019-02-19T01:31:16.711Z,11.26
2019-02-19T01:31:42.844Z,11.25
2019-02-19T01:32:08.975Z,11.26
2019-02-19T01:32:35.077Z,11.23
2019-02-19T01:33:01.186Z,11.25
2019-02-19T01:33:27.291Z,11.26
2019-02-19T01:33:53.398Z,11.25
2019-02-19T01:34:19.535Z,11.25
2019-02-19T01:34:46.708Z,11.19
2019-02-19T01:35:12.807Z,11.15
2019-02-19T01:35:38.918Z,11.15
2019-02-19T01:36:05.059Z,11.19
2019-02-19T01:36:31.157Z,11.14
2019-02-19T01:36:57.262Z,11.22
2019-02-19T01:37:23.394Z,11.19
2019-02-19T01:37:49.503Z,11.23
2019-02-19T01:38:15.610Z,11.22
2019-02-19T01:38:41.714Z,11.23
2019-02-19T01:39:07.823Z,11.22
2019-02-19T01:39:33.926Z,11.25
2019-02-19T01:40:00.029Z,11.23
2019-02-19T01:40:26.138Z,11.17
2019-02-19T01:40:52.240Z,11.12
2019-02-19T01:41:18.355Z,11.11
2019-02-19T01:41:44.490Z,11.11
2019-02-19T01:42:10.593Z,11.12
2019-02-19T01:42:36.705Z,11.11
2019-02-19T01:43:02.811Z,11.15
2019-02-19T01:43:28.917Z,11.15
2019-02-19T01:43:55.087Z,11.19
2019-02-19T01:44:21.219Z,11.22
2019-02-19T01:44:47.352Z,11.18
2019-02-19T01:45:13.490Z,11.17
2019-02-19T01:45:40.590Z,11.15
2019-02-19T01:46:06.689Z,11.11
2019-02-19T01:46:32.792Z,11.17
2019-02-19T01:46:58.905Z,11.15
2019-02-19T01:47:25.088Z,11.11
2019-02-19T01:47:51.159Z,11.11
2019-02-19T01:48:17.269Z,11.04
2019-02-19T01:48:43.375Z,11.14
2019-02-19T01:49:09.487Z,11.02
2019-02-19T01:49:35.594Z,11.05
2019-02-19T01:50:01.694Z,11.04
2019-02-19T01:50:27.813Z,11.02
2019-02-19T01:50:53.918Z,11.05
2019-02-19T01:51:20.050Z,11.08
2019-02-19T01:51:46.154Z,11.02
2019-02-19T01:52:12.252Z,11.14
2019-02-19T01:52:38.390Z,11.11
2019-02-19T01:53:04.491Z,11.1
2019-02-19T01:53:30.588Z,11
2019-02-19T01:53:56.695Z,11.1
2019-02-19T01:54:22.801Z,11.08
2019-02-19T01:54:48.907Z,11.08
2019-02-19T01:55:15.045Z,11.11
2019-02-19T01:55:41.146Z,11.02
2019-02-19T01:56:07.276Z,11.04
2019-02-19T01:56:33.411Z,11.1
2019-02-19T01:56:59.535Z,11.08
2019-02-19T01:57:25.645Z,11.05
2019-02-19T01:57:51.752Z,11.02
2019-02-19T01:58:17.861Z,11
2019-02-19T01:58:43.960Z,10.99
2019-02-19T01:59:10.073Z,11.04
2019-02-19T01:59:36.200Z,10.94
2019-02-19T02:00:02.314Z,11.02
2019-02-19T02:00:28.423Z,11.02
2019-02-19T02:00:54.517Z,10.97
2019-02-19T02:01:20.651Z,10.99
2019-02-19T02:01:46.756Z,11.02
2019-02-19T02:02:12.862Z,11.02
2019-02-19T02:02:38.986Z,10.99
2019-02-19T02:03:05.109Z,11.02
2019-02-19T02:03:31.211Z,11
2019-02-19T02:03:57.324Z,11.05
2019-02-19T02:04:23.484Z,11.02
2019-02-19T02:04:49.594Z,10.93
2019-02-19T02:05:15.734Z,11
2019-02-19T02:05:41.841Z,11.04
2019-02-19T02:06:07.970Z,10.96
2019-02-19T02:06:34.109Z,11.07
2019-02-19T02:07:00.237Z,11.07
2019-02-19T02:07:26.341Z,11.04
2019-02-19T02:07:52.482Z,11.11
2019-02-19T02:08:18.615Z,11.05
2019-02-19T02:08:44.722Z,11.08
2019-02-19T02:09:10.829Z,11.02
2019-02-19T02:09:36.964Z,10.96
2019-02-19T02:10:03.071Z,11.04
2019-02-19T02:10:29.175Z,11.05
2019-02-19T02:10:55.283Z,11.02
2019-02-19T02:11:21.390Z,10.97
2019-02-19T02:11:47.501Z,11.02
2019-02-19T02:12:13.614Z,10.97
2019-02-19T02:12:39.743Z,10.94
2019-02-19T02:13:05.855Z,11.02
2019-02-19T02:13:31.958Z,10.97
2019-02-19T02:13:58.066Z,11.05
2019-02-19T02:14:24.162Z,10.99
2019-02-19T02:14:50.271Z,10.99
2019-02-19T02:15:16.375Z,10.99
2019-02-19T02:15:43.468Z,10.97
2019-02-19T02:16:09.600Z,10.99
2019-02-19T02:16:35.712Z,11.05
2019-02-19T02:17:01.813Z,11.04
2019-02-19T02:17:27.922Z,11.02
2019-02-19T02:17:54.030Z,11
2019-02-19T02:18:20.193Z,11.04
2019-02-19T02:18:46.293Z,10.99
2019-02-19T02:19:12.402Z,11.1
2019-02-19T02:19:38.499Z,11.12
2019-02-19T02:20:04.603Z,10.97
2019-02-19T02:20:30.713Z,11.05
2019-02-19T02:20:56.820Z,11.05
2019-02-19T02:21:22.957Z,10.97
2019-02-19T02:21:49.052Z,10.99
2019-02-19T02:22:15.191Z,11.08
2019-02-19T02:22:41.291Z,11
2019-02-19T02:23:07.401Z,11.05
2019-02-19T02:23:33.507Z,11.02
2019-02-19T02:23:59.608Z,11
2019-02-19T02:24:25.743Z,11.04
2019-02-19T02:24:51.850Z,11
2019-02-19T02:25:17.951Z,11
2019-02-19T02:25:44.093Z,10.97
2019-02-19T02:26:10.195Z,11
2019-02-19T02:26:36.298Z,10.99
2019-02-19T02:27:02.406Z,11.05
2019-02-19T02:27:28.515Z,10.96
2019-02-19T02:27:54.619Z,11.02
2019-02-19T02:28:20.718Z,11.05
2019-02-19T02:28:46.837Z,11.04
2019-02-19T02:29:12.964Z,10.97
2019-02-19T02:29:39.101Z,11.05
2019-02-19T02:30:05.212Z,10.99
2019-02-19T02:30:31.358Z,10.96
2019-02-19T02:30:57.517Z,11.02
2019-02-19T02:31:23.648Z,10.99
2019-02-19T02:31:49.785Z,10.99
2019-02-19T02:32:15.885Z,10.96
2019-02-19T02:32:42.044Z,10.94
2019-02-19T02:33:08.154Z,10.96
2019-02-19T02:33:34.289Z,11.04
2019-02-19T02:34:00.395Z,10.9
2019-02-19T02:34:26.527Z,10.93
2019-02-19T02:34:52.701Z,10.99
2019-02-19T02:35:18.863Z,10.96
2019-02-19T02:35:44.976Z,10.9
2019-02-19T02:36:11.135Z,10.93
2019-02-19T02:36:37.248Z,11.05
2019-02-19T02:37:03.385Z,10.99
2019-02-19T02:37:29.524Z,10.9
2019-02-19T02:37:55.638Z,10.84
2019-02-19T02:38:21.736Z,10.89
2019-02-19T02:38:47.846Z,10.82
2019-02-19T02:39:13.978Z,10.94
2019-02-19T02:39:40.089Z,10.84
2019-02-19T02:40:06.187Z,10.87
2019-02-19T02:40:32.294Z,10.82
2019-02-19T02:40:59.386Z,10.75
2019-02-19T02:41:25.527Z,10.86
2019-02-19T02:41:51.714Z,10.82
2019-02-19T02:42:17.807Z,10.74
2019-02-19T02:42:43.916Z,10.71
2019-02-19T02:43:10.027Z,10.74
2019-02-19T02:43:36.141Z,10.76
2019-02-19T02:44:02.269Z,10.79
2019-02-19T02:44:28.430Z,10.72
2019-02-19T02:44:54.530Z,10.76
2019-02-19T02:45:20.668Z,10.74
2019-02-19T02:45:53.163Z,10.74
2019-02-19T02:46:14.794Z,10.74
2019-02-19T02:46:40.902Z,10.72
2019-02-19T02:47:07.010Z,10.74
2019-02-19T02:47:33.108Z,10.75
2019-02-19T02:47:59.219Z,10.75
2019-02-19T02:48:25.361Z,10.74
2019-02-19T02:48:51.472Z,10.76
2019-02-19T02:49:17.570Z,10.84
2019-02-19T02:49:43.682Z,10.84
2019-02-19T02:50:09.834Z,10.86
2019-02-19T02:50:35.942Z,10.81
2019-02-19T02:51:02.045Z,10.78
2019-02-19T02:51:28.154Z,10.89
2019-02-19T02:51:54.286Z,10.78
2019-02-19T02:52:20.407Z,10.79
2019-02-19T02:52:46.498Z,10.81
2019-02-19T02:53:12.595Z,10.82
2019-02-19T02:53:38.700Z,10.93
2019-02-19T02:54:04.804Z,10.81
2019-02-19T02:54:30.924Z,10.86
2019-02-19T02:54:57.024Z,10.87
2019-02-19T02:55:23.191Z,10.94
2019-02-19T02:55:49.317Z,10.92
2019-02-19T02:56:15.414Z,10.84
2019-02-19T02:56:41.553Z,10.81
2019-02-19T02:57:07.660Z,10.86
2019-02-19T02:57:33.763Z,10.81
2019-02-19T02:57:59.867Z,10.81
2019-02-19T02:58:25.979Z,10.86
2019-02-19T02:58:52.086Z,10.92
2019-02-19T02:59:18.229Z,10.93
2019-02-19T02:59:44.354Z,10.89
2019-02-19T03:00:10.463Z,10.97
2019-02-19T03:00:36.603Z,10.84
2019-02-19T03:01:02.701Z,10.9
2019-02-19T03:01:28.812Z,10.96
2019-02-19T03:01:54.919Z,10.97
2019-02-19T03:02:21.020Z,11.04
2019-02-19T03:02:47.134Z,10.97
2019-02-19T03:03:13.237Z,11
2019-02-19T03:03:39.382Z,10.9
2019-02-19T03:04:05.508Z,10.87
2019-02-19T03:04:31.614Z,11.04
2019-02-19T03:04:57.714Z,10.96
2019-02-19T03:05:25.333Z,11.04
2019-02-19T03:05:51.031Z,11.02
2019-02-19T03:06:17.146Z,10.96
2019-02-19T03:06:43.271Z,11.04
2019-02-19T03:07:09.385Z,10.99
2019-02-19T03:07:35.491Z,11.04
2019-02-19T03:08:01.640Z,11.02
2019-02-19T03:08:27.770Z,11.14
2019-02-19T03:08:53.877Z,11
2019-02-19T03:09:20.004Z,11.08
2019-02-19T03:09:46.136Z,11.1
2019-02-19T03:10:12.245Z,11.12
2019-02-19T03:10:38.381Z,11.15
2019-02-19T03:11:04.483Z,11.15
2019-02-19T03:11:30.590Z,11.14
2019-02-19T03:11:56.758Z,11.14
2019-02-19T03:12:22.861Z,11.19
2019-02-19T03:12:48.992Z,11.22
2019-02-19T03:13:15.102Z,11.22
2019-02-19T03:13:41.209Z,11.14
2019-02-19T03:14:07.322Z,11.19
2019-02-19T03:14:33.433Z,11.22
2019-02-19T03:14:59.534Z,11.22
2019-02-19T03:15:25.666Z,11.14
2019-02-19T03:15:51.770Z,11.15
2019-02-19T03:16:18.900Z,11.14
2019-02-19T03:16:45.004Z,11.15
2019-02-19T03:17:11.141Z,11.18
2019-02-19T03:17:37.244Z,11.15
2019-02-19T03:18:03.356Z,11.1
2019-02-19T03:18:29.452Z,11.07
2019-02-19T03:18:55.558Z,11.04
2019-02-19T03:19:21.698Z,11.05
2019-02-19T03:19:47.799Z,11.02
2019-02-19T03:20:13.949Z,11.1
2019-02-19T03:20:40.047Z,11.02
2019-02-19T03:21:06.154Z,11.14
2019-02-19T03:21:32.267Z,11.11
2019-02-19T03:21:58.377Z,11.02
2019-02-19T03:22:24.537Z,11.02
2019-02-19T03:22:50.647Z,11.08
2019-02-19T03:23:16.793Z,11.02
2019-02-19T03:23:42.921Z,11.07
2019-02-19T03:24:09.025Z,11.05
2019-02-19T03:24:35.140Z,11.12
2019-02-19T03:25:01.243Z,11.11
2019-02-19T03:25:27.350Z,11.14
2019-02-19T03:25:53.509Z,11.08
2019-02-19T03:26:19.622Z,11.11
2019-02-19T03:26:45.728Z,11.14
2019-02-19T03:27:11.854Z,11.11
2019-02-19T03:27:37.956Z,11.1
2019-02-19T03:28:04.104Z,11.1
2019-02-19T03:28:30.207Z,11.17
2019-02-19T03:28:56.348Z,11.18
2019-02-19T03:29:22.504Z,11.23
2019-02-19T03:29:48.643Z,11.18
2019-02-19T03:30:14.784Z,11.18
2019-02-19T03:30:40.943Z,11.18
2019-02-19T03:31:07.051Z,11.18
2019-02-19T03:31:33.242Z,11.15
2019-02-19T03:31:59.369Z,11.19
2019-02-19T03:32:25.554Z,11.18
2019-02-19T03:32:51.713Z,11.14
2019-02-19T03:33:17.828Z,11.11
2019-02-19T03:33:43.984Z,11.15
2019-02-19T03:34:10.119Z,11.19
2019-02-19T03:34:36.223Z,11.18
2019-02-19T03:35:02.331Z,11.22
2019-02-19T03:35:28.441Z,11.18
2019-02-19T03:35:54.541Z,11.15
2019-02-19T03:36:20.651Z,11.18
2019-02-19T03:36:46.755Z,11.17
2019-02-19T03:37:12.884Z,11.15
2019-02-19T03:37:39.029Z,11.22
2019-02-19T03:38:05.099Z,11.15
2019-02-19T03:38:31.255Z,11.22
2019-02-19T03:38:57.363Z,11.1
2019-02-19T03:39:23.467Z,11.22
2019-02-19T03:39:49.579Z,11.14
2019-02-19T03:40:16.699Z,11.14
2019-02-19T03:40:42.800Z,11.22
2019-02-19T03:41:08.903Z,11.15
2019-02-19T03:41:35.004Z,11.15
2019-02-19T03:42:01.114Z,11.17
2019-02-19T03:42:27.216Z,11.19
2019-02-19T03:42:53.326Z,11.19
2019-02-19T03:43:19.430Z,11.25
2019-02-19T03:43:45.568Z,11.15
2019-02-19T03:44:11.680Z,11.19
2019-02-19T03:44:37.838Z,11.22
2019-02-19T03:45:03.972Z,11.22
2019-02-19T03:45:30.083Z,11.26
2019-02-19T03:45:56.186Z,11.18
2019-02-19T03:46:23.311Z,11.27
2019-02-19T03:46:50.412Z,11.25
2019-02-19T03:47:16.522Z,11.29
2019-02-19T03:47:42.652Z,11.26
2019-02-19T03:48:08.766Z,11.26
2019-02-19T03:48:34.920Z,11.19
2019-02-19T03:49:01.064Z,11.23
2019-02-19T03:49:27.192Z,11.14
2019-02-19T03:49:53.334Z,11.17
2019-02-19T03:50:19.441Z,11.17
2019-02-19T03:50:45.551Z,11.19
2019-02-19T03:51:11.714Z,11.19
2019-02-19T03:51:37.819Z,11.17
2019-02-19T03:52:03.926Z,11.27
2019-02-19T03:52:30.093Z,11.19
2019-02-19T03:52:56.224Z,11.27
2019-02-19T03:53:22.339Z,11.23
2019-02-19T03:53:48.446Z,11.26
2019-02-19T03:54:14.557Z,11.26
2019-02-19T03:54:40.675Z,11.18
2019-02-19T03:55:06.793Z,11.19
2019-02-19T03:55:32.929Z,11.23
2019-02-19T03:55:59.073Z,11.19
2019-02-19T03:56:25.140Z,11.23
2019-02-19T03:56:51.272Z,11.17
2019-02-19T03:57:17.351Z,11.25
2019-02-19T03:57:43.452Z,11.23
2019-02-19T03:58:09.563Z,11.19
2019-02-19T03:58:35.666Z,11.25
2019-02-19T03:59:01.774Z,11.18
2019-02-19T03:59:27.889Z,11.23
2019-02-19T03:59:54.019Z,11.25
2019-02-19T04:00:20.186Z,11.15
2019-02-19T04:00:46.285Z,11.14
2019-02-19T04:01:12.422Z,11.22
2019-02-19T04:01:38.564Z,11.15
2019-02-19T04:02:04.678Z,11.18
2019-02-19T04:02:30.800Z,11
2019-02-19T04:02:56.940Z,11.08
2019-02-19T04:03:23.042Z,11.05
2019-02-19T04:03:49.173Z,11.11
2019-02-19T04:04:15.282Z,11.15
2019-02-19T04:04:41.418Z,11.07
2019-02-19T04:05:07.565Z,11.1
2019-02-19T04:05:33.696Z,11.05
2019-02-19T04:05:59.799Z,11.02
2019-02-19T04:06:25.967Z,11.02
2019-02-19T04:06:52.127Z,11.08
2019-02-19T04:07:18.265Z,10.96
2019-02-19T04:07:44.388Z,11.05
2019-02-19T04:08:10.492Z,10.99
2019-02-19T04:08:36.596Z,10.9
2019-02-19T04:09:02.704Z,10.92
2019-02-19T04:09:28.806Z,10.92
2019-02-19T04:09:54.947Z,10.89
2019-02-19T04:10:21.085Z,10.96
2019-02-19T04:10:47.193Z,10.94
2019-02-19T04:11:13.303Z,10.97
2019-02-19T04:11:39.409Z,10.96
2019-02-19T04:12:05.539Z,10.97
2019-02-19T04:12:31.653Z,11.04
2019-02-19T04:12:57.773Z,10.94
2019-02-19T04:13:23.908Z,10.96
2019-02-19T04:13:50.017Z,10.89
2019-02-19T04:14:16.149Z,10.9
2019-02-19T04:14:42.264Z,10.93
2019-02-19T04:15:08.373Z,10.9
2019-02-19T04:15:34.508Z,10.87
2019-02-19T04:16:00.666Z,10.9
2019-02-19T04:16:27.773Z,10.84
2019-02-19T04:16:54.190Z,10.93
2019-02-19T04:17:20.301Z,10.9
2019-02-19T04:17:46.402Z,10.86
2019-02-19T04:18:12.531Z,10.82
2019-02-19T04:18:38.637Z,10.92
2019-02-19T04:19:04.776Z,10.84
2019-02-19T04:19:30.880Z,10.87
2019-02-19T04:19:56.981Z,10.87
2019-02-19T04:20:23.085Z,10.87
2019-02-19T04:20:49.212Z,10.92
2019-02-19T04:21:15.323Z,10.82
2019-02-19T04:21:41.431Z,10.81
2019-02-19T04:22:07.539Z,10.74
2019-02-19T04:22:33.673Z,10.74
2019-02-19T04:22:59.779Z,10.72
2019-02-19T04:23:25.904Z,10.71
2019-02-19T04:23:52.046Z,10.74
2019-02-19T04:24:18.155Z,10.71
2019-02-19T04:24:44.264Z,10.67
2019-02-19T04:25:10.364Z,10.75
2019-02-19T04:25:36.509Z,10.74
2019-02-19T04:26:02.613Z,10.68
2019-02-19T04:26:29.711Z,10.72
2019-02-19T04:26:55.849Z,10.78
2019-02-19T04:27:21.973Z,10.74
2019-02-19T04:27:48.084Z,10.74
2019-02-19T04:28:14.183Z,10.81
2019-02-19T04:28:40.297Z,10.76
2019-02-19T04:29:06.422Z,10.72
2019-02-19T04:29:32.526Z,10.71
2019-02-19T04:29:58.628Z,10.72
2019-02-19T04:30:24.736Z,10.69
2019-02-19T04:30:50.840Z,10.71
2019-02-19T04:31:16.982Z,10.67
2019-02-19T04:31:43.115Z,10.71
2019-02-19T04:32:09.275Z,10.71
2019-02-19T04:32:35.388Z,10.69
2019-02-19T04:33:01.498Z,10.71
2019-02-19T04:33:27.602Z,10.61
2019-02-19T04:33:53.733Z,10.69
2019-02-19T04:34:19.843Z,10.61
2019-02-19T04:34:45.950Z,10.71
2019-02-19T04:35:12.057Z,10.71
2019-02-19T04:35:38.160Z,10.75
2019-02-19T04:36:04.276Z,10.74
2019-02-19T04:36:30.403Z,10.74
2019-02-19T04:36:56.512Z,10.71
2019-02-19T04:37:22.619Z,10.71
2019-02-19T04:37:49.719Z,10.75
2019-02-19T04:38:15.823Z,10.74
2019-02-19T04:38:41.931Z,10.75
2019-02-19T04:39:08.035Z,10.74
2019-02-19T04:39:34.179Z,10.71
2019-02-19T04:40:00.340Z,10.74
2019-02-19T04:40:26.409Z,10.71
2019-02-19T04:40:52.514Z,10.63
2019-02-19T04:41:18.630Z,10.69
2019-02-19T04:41:44.754Z,10.61
2019-02-19T04:42:10.866Z,10.64
2019-02-19T04:42:36.991Z,10.59
2019-02-19T04:43:03.153Z,10.69
2019-02-19T04:43:29.261Z,10.68
2019-02-19T04:43:55.372Z,10.67
2019-02-19T04:44:21.473Z,10.68
2019-02-19T04:44:47.615Z,10.72
2019-02-19T04:45:13.743Z,10.74
2019-02-19T04:45:39.850Z,10.64
2019-02-19T04:46:05.954Z,10.69
2019-02-19T04:46:34.082Z,10.76
2019-02-19T04:47:00.240Z,10.68
2019-02-19T04:47:26.408Z,10.72
2019-02-19T04:47:52.533Z,10.86
2019-02-19T04:48:18.702Z,10.78
2019-02-19T04:48:44.800Z,10.84
2019-02-19T04:49:10.907Z,10.86
2019-02-19T04:49:37.020Z,10.84
2019-02-19T04:50:03.157Z,10.81
2019-02-19T04:50:29.320Z,10.84
2019-02-19T04:50:55.421Z,10.78
2019-02-19T04:51:21.563Z,10.74
2019-02-19T04:51:47.668Z,10.75
2019-02-19T04:52:13.768Z,10.72
2019-02-19T04:52:39.881Z,10.72
2019-02-19T04:53:05.981Z,10.72
2019-02-19T04:53:32.117Z,10.75
2019-02-19T04:53:58.255Z,10.72
2019-02-19T04:54:24.432Z,10.71
2019-02-19T04:54:50.557Z,10.68
2019-02-19T04:55:16.691Z,10.72
2019-02-19T04:55:42.792Z,10.69
2019-02-19T04:56:08.896Z,10.64
2019-02-19T04:56:35.006Z,10.54
2019-02-19T04:57:01.109Z,10.61
2019-02-19T04:57:27.216Z,10.64
2019-02-19T04:57:53.352Z,10.63
2019-02-19T04:58:19.460Z,10.64
2019-02-19T04:58:45.560Z,10.68
2019-02-19T04:59:11.671Z,10.68
2019-02-19T04:59:37.774Z,10.69
2019-02-19T05:00:03.932Z,10.67
2019-02-19T05:00:30.044Z,10.69
2019-02-19T05:00:56.148Z,10.69
2019-02-19T05:01:22.287Z,10.61
2019-02-19T05:01:48.425Z,10.63
2019-02-19T05:02:14.554Z,10.53
2019-02-19T05:02:40.665Z,10.57
2019-02-19T05:03:07.291Z,10.59
2019-02-19T05:03:33.394Z,10.49
2019-02-19T05:03:59.502Z,10.49
2019-02-19T05:04:25.629Z,10.51
2019-02-19T05:04:51.772Z,10.54
2019-02-19T05:05:17.874Z,10.54
2019-02-19T05:05:44.017Z,10.61
2019-02-19T05:06:10.142Z,10.64
2019-02-19T05:06:36.251Z,10.64
2019-02-19T05:07:02.382Z,10.64
2019-02-19T05:07:28.492Z,10.68
2019-02-19T05:07:54.628Z,10.63
2019-02-19T05:08:20.740Z,10.68
2019-02-19T05:08:46.845Z,10.61
2019-02-19T05:09:12.953Z,10.64
2019-02-19T05:09:39.063Z,10.61
2019-02-19T05:10:05.174Z,10.6
2019-02-19T05:10:31.276Z,10.56
2019-02-19T05:10:57.392Z,10.64
2019-02-19T05:11:23.548Z,10.59
2019-02-19T05:11:49.661Z,10.61
2019-02-19T05:12:15.772Z,10.59
2019-02-19T05:12:41.898Z,10.57
2019-02-19T05:13:08.014Z,10.63
2019-02-19T05:13:34.114Z,10.59
2019-02-19T05:14:00.241Z,10.59
2019-02-19T05:14:26.380Z,10.53
2019-02-19T05:14:52.485Z,10.59
2019-02-19T05:15:18.586Z,10.56
2019-02-19T05:15:44.705Z,10.69
2019-02-19T05:16:10.802Z,10.68
2019-02-19T05:16:40.609Z,10.57
2019-02-19T05:17:05.021Z,10.61
2019-02-19T05:17:32.100Z,10.57
2019-02-19T05:17:58.237Z,10.59
2019-02-19T05:18:24.355Z,10.56
2019-02-19T05:18:50.511Z,10.53
2019-02-19T05:19:16.615Z,10.48
2019-02-19T05:19:42.725Z,10.46
2019-02-19T05:20:08.835Z,10.4
2019-02-19T05:20:34.965Z,10.46
2019-02-19T05:21:01.081Z,10.41
2019-02-19T05:21:27.176Z,10.41
2019-02-19T05:21:53.340Z,10.54
2019-02-19T05:22:19.483Z,10.49
2019-02-19T05:22:45.580Z,10.46
2019-02-19T05:23:12.685Z,10.51
2019-02-19T05:23:38.798Z,10.51
2019-02-19T05:24:04.927Z,10.54
2019-02-19T05:24:31.059Z,10.49
2019-02-19T05:24:57.191Z,10.46
2019-02-19T05:25:23.297Z,10.54
2019-02-19T05:25:49.433Z,10.44
2019-02-19T05:26:15.531Z,10.56
2019-02-19T05:26:41.646Z,10.51
2019-02-19T05:27:07.746Z,10.4
2019-02-19T05:27:33.885Z,10.46
2019-02-19T05:28:00.026Z,10.44
2019-02-19T05:28:26.190Z,10.44
2019-02-19T05:28:52.291Z,10.4
2019-02-19T05:29:18.471Z,10.57
2019-02-19T05:29:44.556Z,10.49
2019-02-19T05:30:10.699Z,10.41
2019-02-19T05:30:36.809Z,10.48
2019-02-19T05:31:03.963Z,10.56
2019-02-19T05:31:30.020Z,10.48
2019-02-19T05:31:56.121Z,10.46
2019-02-19T05:32:22.226Z,10.51
2019-02-19T05:32:48.335Z,10.49
2019-02-19T05:33:14.540Z,10.53
2019-02-19T05:33:40.657Z,10.44
2019-02-19T05:34:06.819Z,10.51
2019-02-19T05:34:32.928Z,10.59
2019-02-19T05:34:59.056Z,10.57
2019-02-19T05:35:25.186Z,10.53
2019-02-19T05:35:51.294Z,10.59
2019-02-19T05:36:18.414Z,10.59
2019-02-19T05:36:44.521Z,10.59
2019-02-19T05:37:10.634Z,10.59
2019-02-19T05:37:36.762Z,10.63
2019-02-19T05:38:02.877Z,10.67